Flight Track Log - Related Links

Times and Time Zones

All times are in EDT time to prevent confusion due to time zone crossing. See the DAL268 flight status page for this flight to view local times or setup timezone preferences in your user account.

Time Position Orientation Groundspeed Altitude Reporting Facility
EDT Latitude Longitude Course Direction KTS MPH feet Rate Location/Type
Tue 02:56:26 PM 37.6232 -122.3700 90° East 174 200 100  Level FlightAware ADS-B
Tue 02:56:31 PM 37.6269 -122.3670 33° Northeast 172 198 300 2,769 Climbing FlightAware ADS-B
Tue 02:56:39 PM 37.6321 -122.3630 31° Northeast 176 203 700 2,769 Climbing FlightAware ADS-B
Tue 02:56:44 PM 37.6356 -122.3590 42° Northeast 182 209 900 2,182 Climbing FlightAware ADS-B
Tue 02:56:50 PM 37.6393 -122.3550 41° Northeast 190 219 1,100 2,143 Climbing FlightAware ADS-B
Tue 02:56:58 PM 37.6437 -122.3490 47° Northeast 195 224 1,400 2,118 Climbing FlightAware ADS-B
Tue 02:57:07 PM 37.6494 -122.3400 51° Northeast 210 242 1,700 2,222 Climbing FlightAware ADS-B
Tue 02:57:25 PM 37.6605 -122.3220 52° Northeast 223 257 2,400 2,182 Climbing FlightAware ADS-B
Tue 02:57:40 PM 37.6705 -122.3050 53° Northeast 243 280 2,900 2,438 Climbing FlightAware ADS-B
Tue 02:57:57 PM 37.6818 -122.2870 52° Northeast 250 288 3,700 2,786 Climbing FlightAware ADS-B
Tue 02:58:08 PM 37.6902 -122.2730 53° Northeast 261 300 4,200 2,357 Climbing FlightAware ADS-B
Tue 02:58:25 PM 37.7035 -122.2520 51° Northeast 273 314 4,800 2,571 Climbing FlightAware ADS-B
Tue 02:58:43 PM 37.7186 -122.2290 50° Northeast 285 328 5,700 3,120 Climbing FlightAware ADS-B
Tue 02:58:50 PM 37.7243 -122.2220 44° Northeast 285 328 6,100 3,391 Climbing FlightAware ADS-B
Tue 02:59:06 PM 37.7428 -122.2070 33° Northeast 283 326 7,000 3,167 Climbing FlightAware ADS-B
Tue 02:59:26 PM 37.7657 -122.1920 27° Northeast 281 323 8,000 2,833 Climbing FlightAware ADS-B
Tue 02:59:42 PM 37.7856 -122.1800 25° Northeast 299 344 8,700 2,824 Climbing FlightAware ADS-B
Tue 03:00:00 PM 37.8076 -122.1660 27° Northeast 302 348 9,600 3,158 Climbing FlightAware ADS-B
Tue 03:00:20 PM 37.8315 -122.1480 31° Northeast 305 351 10,700 2,800 Climbing FlightAware ADS-B
Tue 03:00:30 PM 37.8436 -122.1380 33° Northeast 317 365 11,000 1,200 Climbing FlightAware ADS-B
Tue 03:01:00 PM 37.8817 -122.1030 36° Northeast 354 407 11,500 915 Climbing FlightAware ADS-B
Tue 03:01:29 PM 37.9230 -122.0650 36° Northeast 390 449 11,900 1,831 Climbing FlightAware ADS-B
Tue 03:01:59 PM 37.9668 -122.0210 38° Northeast 398 458 13,300 2,667 Climbing FlightAware ADS-B
Tue 03:02:32 PM 38.0139 -121.9740 38° Northeast 405 466 14,700 2,492 Climbing FlightAware ADS-B
Tue 03:03:04 PM 38.0609 -121.9270 38° Northeast 406 467 16,000 1,917 Climbing FlightAware ADS-B
Tue 03:03:44 PM 38.1203 -121.8580 42° Northeast 442 509 17,000 2,034 Climbing FlightAware ADS-B
Tue 03:04:03 PM 38.1440 -121.8190 52° Northeast 442 509 18,000 2,204 Climbing FlightAware ADS-B
Tue 03:04:33 PM 38.1790 -121.7550 55° Northeast 457 526 18,800 1,467 Climbing FlightAware ADS-B
Tue 03:04:48 PM 38.1975 -121.7230 54° Northeast 441 507 19,100 1,971 Climbing FlightAware ADS-B
Tue 03:05:43 PM 38.2740 -121.6070 50° Northeast 472 543 21,100 2,071 Climbing FlightAware ADS-B
Tue 03:06:12 PM 38.3168 -121.5450 49° Northeast 463 533 22,000 1,676 Climbing FlightAware ADS-B
Tue 03:06:51 PM 38.3730 -121.4620 49° Northeast 492 566 23,000 1,440 Climbing FlightAware ADS-B
Tue 03:07:27 PM 38.4250 -121.3810 51° Northeast 506 582 23,800 1,500 Climbing FlightAware ADS-B
Tue 03:08:03 PM 38.4790 -121.2940 52° Northeast 513 590 24,800 1,500 Climbing FlightAware ADS-B
Tue 03:08:39 PM 38.5310 -121.2110 51° Northeast 522 601 25,600 1,418 Climbing FlightAware ADS-B
Tue 03:08:58 PM 38.5622 -121.1620 51° Northeast 510 587 26,100 1,235 Climbing FlightAware ADS-B
Tue 03:09:47 PM 38.6360 -121.0440 51° Northeast 541 623 27,000 1,059 Climbing FlightAware ADS-B
Tue 03:10:23 PM 38.6940 -120.9520 51° Northeast 551 634 27,600 1,147 Climbing FlightAware ADS-B
Tue 03:10:55 PM 38.7450 -120.8710 51° Northeast 558 642 28,300 1,417 Climbing FlightAware ADS-B
Tue 03:11:35 PM 38.8070 -120.7700 52° Northeast 558 642 29,300 1,500 Climbing FlightAware ADS-B
Tue 03:12:11 PM 38.8680 -120.6720 51° Northeast 560 644 30,200 1,324 Climbing FlightAware ADS-B
Tue 03:12:43 PM 38.9190 -120.5900 51° Northeast 565 650 30,800 1,147 Climbing FlightAware ADS-B
Tue 03:13:19 PM 38.9770 -120.4960 52° Northeast 570 656 31,500 1,250 Climbing FlightAware ADS-B
Tue 03:13:55 PM 39.0370 -120.3990 51° Northeast 574 661 32,300 1,250 Climbing FlightAware ADS-B
Tue 03:14:31 PM 39.0960 -120.3030 52° Northeast 576 663 33,000 1,324 Climbing FlightAware ADS-B
Tue 03:15:03 PM 39.1470 -120.2190 52° Northeast 570 656 33,800 1,522 Climbing FlightAware ADS-B
Tue 03:15:38 PM 39.2060 -120.1220 52° Northeast 566 651 34,700 1,412 Climbing FlightAware ADS-B
Tue 03:16:11 PM 39.2560 -120.0400 52° Northeast 563 648 35,400 1,000 Climbing FlightAware ADS-B
Tue 03:16:50 PM 39.3210 -119.9330 52° Northeast 567 652 35,900 930 Climbing FlightAware ADS-B
Tue 03:17:22 PM 39.3740 -119.8460 52° Northeast 566 651 36,500 971 Climbing FlightAware ADS-B
Tue 03:17:58 PM 39.4310 -119.7520 52° Northeast 562 647 37,000 333 Climbing FlightAware ADS-B
Tue 03:18:34 PM 39.4890 -119.6550 52° Northeast 572 658 36,900  Descending FlightAware ADS-B
Tue 03:19:11 PM 39.5480 -119.5570 52° Northeast 570 656 37,000 83 Climbing FlightAware ADS-B
Tue 03:19:46 PM 39.6050 -119.4610 52° Northeast 578 665 37,000 -90 Level FlightAware ADS-B
Tue 03:20:18 PM 39.6570 -119.3740 52° Northeast 577 664 36,900  Descending FlightAware ADS-B
Tue 03:20:54 PM 39.7160 -119.2740 52° Northeast 573 659 37,000 83 Climbing FlightAware ADS-B
Tue 03:21:30 PM 39.7750 -119.1750 52° Northeast 586 674 37,000 -83 Level FlightAware ADS-B
Tue 03:22:06 PM 39.8340 -119.0750 52° Northeast 588 677 36,900  Descending FlightAware ADS-B
Tue 03:22:38 PM 39.8870 -118.9860 52° Northeast 586 674 37,000  Climbing FlightAware ADS-B
Tue 03:23:16 PM 39.9490 -118.8790 53° Northeast 581 669 36,900  Descending FlightAware ADS-B
Tue 03:23:48 PM 40.0010 -118.7910 52° Northeast 578 665 37,000 88 Climbing FlightAware ADS-B
Tue 03:24:24 PM 40.0590 -118.6920 53° Northeast 586 674 37,000  Level FlightAware ADS-B
Tue 03:25:00 PM 40.1130 -118.5860 56° Northeast 588 677 37,000  Level FlightAware ADS-B
Tue 03:25:36 PM 40.1600 -118.4700 62° Northeast 587 676 37,000  Level FlightAware ADS-B
Tue 03:26:08 PM 40.1910 -118.3670 68° East 587 676 37,000  Level FlightAware ADS-B
Tue 03:26:44 PM 40.2250 -118.2460 70° East 587 676 37,000  Level FlightAware ADS-B
Tue 03:27:18 PM 40.2560 -118.1360 70° East 586 674 37,000  Level FlightAware ADS-B
Tue 03:28:14 PM 40.3040 -117.9630 70° East 583 671 37,000  Level FlightAware ADS-B
Tue 03:28:50 PM 40.3320 -117.8620 70° East 583 671 37,000  Level FlightAware ADS-B
Tue 03:29:26 PM 40.3600 -117.7600 70° East 583 671 37,000  Level FlightAware ADS-B
Tue 03:30:03 PM 40.3890 -117.6550 70° East 583 671 37,000  Level FlightAware ADS-B
Tue 03:30:39 PM 40.4180 -117.5530 69° East 583 671 37,000  Level FlightAware ADS-B
Tue 03:31:14 PM 40.4450 -117.4540 70° East 583 671 37,000  Level FlightAware ADS-B
Tue 03:31:51 PM 40.4740 -117.3500 70° East 583 671 37,000  Level FlightAware ADS-B
Tue 03:32:27 PM 40.5020 -117.2480 70° East 583 671 37,000  Level FlightAware ADS-B
Tue 03:33:01 PM 40.5290 -117.1510 70° East 583 671 37,000  Level FlightAware ADS-B
Tue 03:33:38 PM 40.5580 -117.0460 70° East 583 671 37,000  Level FlightAware ADS-B
Tue 03:34:16 PM 40.5880 -116.9390 70° East 583 671 37,000  Level FlightAware ADS-B
Tue 03:34:52 PM 40.6160 -116.8360 70° East 583 671 37,000  Level FlightAware ADS-B
Tue 03:35:38 PM 40.6520 -116.7060 70° East 583 671 37,000  Level FlightAware ADS-B
Tue 03:36:14 PM 40.6800 -116.6040 70° East 583 671 37,000  Level FlightAware ADS-B
Tue 03:36:50 PM 40.7080 -116.5010 70° East 583 671 37,000  Level FlightAware ADS-B
Tue 03:36:58 PM 40.7739 -116.2000 74° East 585 673 37,000  Level FlightAware ADS-B
Tue 03:37:37 PM 40.8080 -116.0700 71° East 590 679 37,000  Level FlightAware ADS-B
Tue 03:38:09 PM 40.8366 -115.9600 71° East 588 677 37,000  Level FlightAware ADS-B
Tue 03:38:39 PM 40.8633 -115.8570 71° East 586 674 37,000  Level FlightAware ADS-B
Tue 03:41:28 PM 41.0092 -115.2850 71° East 581 669 37,000  Level FlightAware ADS-B
Tue 03:41:59 PM 41.0348 -115.1840 71° East 580 667 37,000  Level FlightAware ADS-B
Tue 03:42:29 PM 41.0603 -115.0820 72° East 582 670 37,000  Level FlightAware ADS-B
Tue 03:42:59 PM 41.0858 -114.9800 72° East 582 670 37,000  Level FlightAware ADS-B
Tue 03:43:29 PM 41.1114 -114.8770 72° East 584 672 37,000  Level FlightAware ADS-B
Tue 03:44:28 PM 41.1603 -114.6790 72° East 584 672 37,000  Level FlightAware ADS-B
Tue 03:44:59 PM 41.1859 -114.5740 72° East 583 671 37,000  Level FlightAware ADS-B
Tue 03:45:30 PM 41.2121 -114.4680 72° East 584 672 37,000  Level FlightAware ADS-B
Tue 03:46:03 PM 41.2393 -114.3560 72° East 583 671 37,000 -91 Level FlightAware ADS-B
Tue 03:46:36 PM 41.2666 -114.2430 72° East 581 669 36,900  Descending FlightAware ADS-B
Tue 03:47:26 PM 41.3072 -114.0740 72° East 581 669 37,000  Climbing FlightAware ADS-B
Tue 03:47:56 PM 41.3316 -113.9720 72° East 579 666 36,900  Descending FlightAware ADS-B
Tue 03:48:26 PM 41.3539 -113.8751 73° East 578 665 37,000 128 Climbing FlightAware ADS-B
Tue 03:48:43 PM 41.3665 -113.8130 75° East 577 664 37,000  Level FlightAware ADS-B
Tue 03:49:14 PM 41.3822 -113.7050 79° East 570 656 37,000  Level FlightAware ADS-B
Tue 03:49:25 PM 41.3869 -113.6674 81° East 569 655 37,000  Level FlightAware ADS-B
Tue 03:49:47 PM 41.3963 -113.5900 81° East 568 654 37,000  Level FlightAware ADS-B
Tue 03:49:56 PM 41.3991 -113.5662 81° East 568 654 37,000  Level FlightAware ADS-B
Tue 03:50:19 PM 41.4093 -113.4810 81° East 568 654 37,000  Level FlightAware ADS-B
Tue 03:50:28 PM 41.4126 -113.4539 81° East 568 654 37,000  Level FlightAware ADS-B
Tue 03:50:49 PM 41.4219 -113.3780 81° East 569 655 37,000  Level FlightAware ADS-B
Tue 03:51:26 PM 41.4375 -113.2510 81° East 569 655 37,000  Level FlightAware ADS-B
Tue 03:51:31 PM 41.4397 -113.2334 81° East 570 656 37,000  Level FlightAware ADS-B
Tue 03:52:01 PM 41.4519 -113.1345 81° East 571 657 37,000  Level FlightAware ADS-B
Tue 03:52:05 PM 41.4543 -113.1150 81° East 571 657 37,000  Level FlightAware ADS-B
Tue 03:52:39 PM 41.4688 -112.9990 80° East 571 657 37,000  Level FlightAware ADS-B
Tue 03:52:47 PM 41.4721 -112.9725 81° East 571 657 37,000  Level FlightAware ADS-B
Tue 03:53:09 PM 41.4820 -112.8920 81° East 569 655 37,000  Level FlightAware ADS-B
Tue 03:53:18 PM 41.4856 -112.8629 81° East 570 656 37,000  Level FlightAware ADS-B
Tue 03:53:42 PM 41.4959 -112.7790 81° East 568 654 37,000  Level FlightAware ADS-B
Tue 03:53:51 PM 41.4993 -112.7507 81° East 568 654 37,000  Level FlightAware ADS-B
Tue 03:54:14 PM 41.5094 -112.6680 81° East 568 654 37,000  Level FlightAware ADS-B
Tue 03:54:24 PM 41.5130 -112.6372 81° East 568 654 37,000  Level FlightAware ADS-B
Tue 03:54:45 PM 41.5218 -112.5640 81° East 567 652 37,000  Level FlightAware ADS-B
Tue 03:55:05 PM 41.5292 -112.5019 81° East 566 651 37,000  Level FlightAware ADS-B
Tue 03:55:33 PM 41.5410 -112.3970 81° East 566 651 37,000  Level FlightAware ADS-B
Tue 03:55:37 PM 41.5426 -112.3820 82° East 566 651 37,000  Level FlightAware ADS-B
Tue 03:55:48 PM 41.5460 -112.3499 82° East 565 650 37,000  Level FlightAware ADS-B
Tue 03:56:09 PM 41.5540 -112.2720 82° East 565 650 37,000  Level FlightAware ADS-B
Tue 03:56:22 PM 41.5584 -112.2296 82° East 565 650 37,000  Level FlightAware ADS-B
Tue 03:56:49 PM 41.5682 -112.1340 82° East 565 650 37,000  Level FlightAware ADS-B
Tue 03:57:22 PM 41.5797 -112.0210 82° East 563 648 37,000  Level FlightAware ADS-B
Tue 03:57:53 PM 41.5899 -111.9206 82° East 562 647 37,000  Level FlightAware ADS-B
Tue 03:57:57 PM 41.5918 -111.9020 82° East 562 647 37,000  Level FlightAware ADS-B
Tue 03:58:29 PM 41.6028 -111.7930 82° East 564 649 37,000  Level FlightAware ADS-B
Tue 03:58:33 PM 41.6034 -111.7873 83° East 564 649 37,000  Level FlightAware ADS-B
Tue 03:58:59 PM 41.6133 -111.6890 82° East 564 649 37,000  Level FlightAware ADS-B
Tue 03:59:29 PM 41.6238 -111.5830 82° East 564 649 37,000 -98 Level FlightAware ADS-B
Tue 04:00:00 PM 41.6343 -111.4770 82° East 561 646 36,900  Descending FlightAware ADS-B
Tue 04:00:31 PM 41.6445 -111.3720 83° East 558 642 37,000 154 Climbing FlightAware ADS-B
Tue 04:00:39 PM 41.6472 -111.3451 82° East 558 642 37,000  Level FlightAware ADS-B
Tue 04:01:03 PM 41.6551 -111.2630 83° East 558 642 37,000  Level FlightAware ADS-B
Tue 04:01:34 PM 41.6651 -111.1580 83° East 559 643 37,000 -98 Level FlightAware ADS-B
Tue 04:02:04 PM 41.6749 -111.0550 83° East 560 644 36,900  Descending FlightAware ADS-B
Tue 04:02:35 PM 41.6849 -110.9480 83° East 561 646 37,000  Climbing FlightAware ADS-B
Tue 04:03:11 PM 41.6950 -110.8670 80° East 559 643 36,900  Descending FlightAware ADS-B
Tue 04:03:36 PM 41.7041 -110.7390 85° East 561 646 37,000  Climbing FlightAware ADS-B
Tue 04:04:24 PM 41.7170 -110.6540 78° East 559 643 36,900 -71 Descending FlightAware ADS-B
Tue 04:05:00 PM 41.7280 -110.5490 82° East 559 643 36,900  Level FlightAware ADS-B
Tue 04:05:36 PM 41.7390 -110.4440 82° East 559 643 36,900  Level FlightAware ADS-B
Tue 04:06:12 PM 41.7500 -110.3390 82° East 559 643 36,900  Level FlightAware ADS-B
Tue 04:06:48 PM 41.7610 -110.2340 82° East 559 643 36,900  Level FlightAware ADS-B
Tue 04:07:24 PM 41.7720 -110.1290 82° East 559 643 36,900  Level FlightAware ADS-B
Tue 04:08:00 PM 41.7830 -110.0230 82° East 559 643 36,900  Level FlightAware ADS-B
Tue 04:08:36 PM 41.7940 -109.9180 82° East 559 643 36,900  Level FlightAware ADS-B
Tue 04:09:12 PM 41.8050 -109.8130 82° East 559 643 36,900  Level FlightAware ADS-B
Tue 04:09:48 PM 41.8160 -109.7080 82° East 559 643 36,900  Level FlightAware ADS-B
Tue 04:10:24 PM 41.8270 -109.6030 82° East 559 643 36,900  Level FlightAware ADS-B
Tue 04:11:00 PM 41.8380 -109.4980 82° East 559 643 36,900  Level FlightAware ADS-B
Tue 04:11:36 PM 41.8490 -109.3930 82° East 559 643 36,900 81 Level FlightAware ADS-B
Tue 04:12:14 PM 41.8533 -108.9639 82° East 563 648 37,000 61 Climbing Denver Center
Tue 04:13:15 PM 41.8675 -108.7628 85° East 563 648 37,000  Level Denver Center
Tue 04:14:17 PM 41.8817 -108.5614 85° East 565 650 37,000  Level Denver Center
Tue 04:15:19 PM 41.8978 -108.3272 85° East 564 649 37,000  Level Denver Center
Tue 04:16:21 PM 41.9119 -108.1261 85° East 563 648 37,000  Level Denver Center
Tue 04:17:23 PM 41.9281 -107.8928 85° East 562 647 37,000  Level Denver Center
Tue 04:18:25 PM 41.9403 -107.6942 85° East 560 644 37,000  Level Denver Center
Tue 04:19:27 PM 41.9553 -107.4639 85° East 554 638 37,000  Level Denver Center
Tue 04:24:30 PM 42.0160 -106.4070 85° East 559 643 37,000  Level FlightAware ADS-B
Tue 04:25:04 PM 42.0220 -106.2910 86° East 561 646 37,000  Level FlightAware ADS-B
Tue 04:25:41 PM 42.0280 -106.1790 86° East 561 646 37,000  Level FlightAware ADS-B
Tue 04:26:20 PM 42.0350 -106.0290 86° East 556 640 37,000  Level FlightAware ADS-B
Tue 04:26:52 PM 42.0410 -105.9170 86° East 559 643 37,000  Level FlightAware ADS-B
Tue 04:27:34 PM 42.0480 -105.7700 86° East 560 644 37,000  Level FlightAware ADS-B
Tue 04:28:05 PM 42.0530 -105.6640 86° East 562 647 37,000  Level FlightAware ADS-B
Tue 04:28:44 PM 42.0590 -105.5280 87° East 560 644 37,000  Level FlightAware ADS-B
Tue 04:29:17 PM 42.0640 -105.4170 86° East 561 646 37,000  Level FlightAware ADS-B
Tue 04:29:56 PM 42.0700 -105.2790 87° East 558 642 37,000  Level FlightAware ADS-B
Tue 04:30:31 PM 42.0760 -105.1580 86° East 561 646 37,000  Level FlightAware ADS-B
Tue 04:31:04 PM 42.0860 -105.0400 83° East 558 642 37,000  Level FlightAware ADS-B
Tue 04:31:40 PM 42.0960 -104.9210 83° East 558 642 37,000  Level FlightAware ADS-B
Tue 04:32:16 PM 42.1070 -104.7950 83° East 556 640 37,000  Level FlightAware ADS-B
Tue 04:32:48 PM 42.1160 -104.6870 84° East 555 639 37,000  Level FlightAware ADS-B
Tue 04:33:25 PM 42.1270 -104.5570 83° East 555 639 37,000  Level FlightAware ADS-B
Tue 04:34:00 PM 42.1380 -104.4370 83° East 555 639 37,000  Level FlightAware ADS-B
Tue 04:34:37 PM 42.1480 -104.3120 84° East 555 639 37,000  Level FlightAware ADS-B
Tue 04:35:10 PM 42.1570 -104.1990 84° East 556 640 37,000  Level FlightAware ADS-B
Tue 04:35:44 PM 42.1670 -104.0790 84° East 554 638 37,000  Level FlightAware ADS-B
Tue 04:36:21 PM 42.1770 -103.9530 84° East 553 636 37,000  Level FlightAware ADS-B
Tue 04:36:56 PM 42.1860 -103.8350 84° East 553 636 37,000  Level FlightAware ADS-B
Tue 04:37:26 PM 42.1940 -103.7330 84° East 551 634 37,000  Level FlightAware ADS-B
Tue 04:38:02 PM 42.2020 -103.6290 84° East 551 634 37,000  Level FlightAware ADS-B
Tue 04:38:38 PM 42.2100 -103.5240 84° East 551 634 37,000  Level FlightAware ADS-B
Tue 04:39:14 PM 42.2180 -103.4190 84° East 551 634 37,000  Level FlightAware ADS-B
Tue 04:39:50 PM 42.2270 -103.3150 83° East 551 634 37,000  Level FlightAware ADS-B
Tue 04:40:26 PM 42.2350 -103.2100 84° East 551 634 37,000  Level FlightAware ADS-B
Tue 04:41:02 PM 42.2430 -103.1050 84° East 551 634 37,000  Level FlightAware ADS-B
Tue 04:41:38 PM 42.2510 -103.0000 84° East 551 634 37,000  Level FlightAware ADS-B
Tue 04:42:14 PM 42.2590 -102.8950 84° East 551 634 37,000  Level FlightAware ADS-B
Tue 04:42:50 PM 42.2670 -102.7910 84° East 551 634 37,000  Level FlightAware ADS-B
Tue 04:43:29 PM 42.2760 -102.6770 84° East 551 634 37,000  Level FlightAware ADS-B
Tue 04:44:05 PM 42.2840 -102.5720 84° East 551 634 37,000  Level FlightAware ADS-B
Tue 04:44:41 PM 42.2920 -102.4670 84° East 551 634 37,000  Level FlightAware ADS-B
Tue 04:45:18 PM 42.3010 -102.3590 84° East 551 634 37,000  Level FlightAware ADS-B
Tue 04:45:54 PM 42.3090 -102.2550 84° East 551 634 37,000  Level FlightAware ADS-B
Tue 04:46:31 PM 42.3170 -102.1470 84° East 551 634 37,000  Level FlightAware ADS-B
Tue 04:47:07 PM 42.3250 -102.0420 84° East 551 634 37,000  Level FlightAware ADS-B
Tue 04:48:18 PM 42.3403 -101.5642 84° East 536 617 37,000  Level Minneapolis Center
Tue 04:49:20 PM 42.3506 -101.3639 86° East 535 616 37,000  Level Minneapolis Center
Tue 04:50:22 PM 42.3631 -101.1656 85° East 531 611 37,000  Level Minneapolis Center
Tue 04:51:24 PM 42.3736 -100.9675 86° East 528 608 37,000  Level Minneapolis Center
Tue 04:52:26 PM 42.3847 -100.7306 86° East 526 605 37,000  Level Minneapolis Center
Tue 04:53:28 PM 42.3944 -100.5353 86° East 523 602 37,000  Level Minneapolis Center
Tue 04:54:30 PM 42.4044 -100.3389 86° East 522 601 37,000  Level Minneapolis Center
Tue 04:55:00 PM 42.4081 -100.2767 85° East 525 604 37,000  Level Denver Center
Tue 04:56:03 PM 42.4189 -100.0275 87° East 520 598 37,000  Level Denver Center
Tue 04:57:05 PM 42.4306 -99.8247 85° East 524 603 37,000  Level Denver Center
Tue 04:58:07 PM 42.4422 -99.6281 85° East 524 603 37,000  Level Denver Center
Tue 04:58:38 PM 42.4458 -99.5517 86° East 523 602 37,000  Level Minneapolis Center
Tue 04:59:42 PM 42.4600 -99.3139 85° East 526 605 37,000  Level Minneapolis Center
Tue 05:00:44 PM 42.4706 -99.1158 86° East 526 605 37,000  Level Minneapolis Center
Tue 05:01:46 PM 42.4800 -98.9181 86° East 525 604 37,000  Level Minneapolis Center
Tue 05:02:48 PM 42.4897 -98.7183 86° East 528 608 37,000  Level Minneapolis Center
Tue 05:08:56 PM 42.5410 -97.5000 86° East 521 600 37,000  Level FlightAware ADS-B
Tue 05:09:36 PM 42.5460 -97.3610 87° East 519 597 37,000  Level FlightAware ADS-B
Tue 05:10:24 PM 42.5520 -97.2160 87° East 519 597 37,000  Level FlightAware ADS-B
Tue 05:10:58 PM 42.5560 -97.0870 88° East 520 598 37,000  Level FlightAware ADS-B
Tue 05:11:13 PM 42.5574 -97.0407 88° East 521 600 37,000  Level FlightAware ADS-B
Tue 05:12:12 PM 42.5640 -96.8480 87° East 520 598 37,000  Level FlightAware ADS-B
Tue 05:12:44 PM 42.5670 -96.7470 88° East 518 596 37,000  Level FlightAware ADS-B
Tue 05:13:34 PM 42.5720 -96.5820 88° East 515 593 37,000  Level FlightAware ADS-B
Tue 05:14:10 PM 42.5750 -96.4730 88° East 514 592 37,000  Level FlightAware ADS-B
Tue 05:14:46 PM 42.5780 -96.3520 88° East 512 589 37,000  Level FlightAware ADS-B
Tue 05:15:17 PM 42.5810 -96.2580 87° East 512 589 37,000  Level FlightAware ADS-B
Tue 05:15:54 PM 42.5840 -96.1330 88° East 514 592 37,000  Level FlightAware ADS-B
Tue 05:16:32 PM 42.5870 -96.0270 88° East 514 592 37,000  Level FlightAware ADS-B
Tue 05:17:11 PM 42.5899 -95.8846 88° East 512 589 37,000  Level FlightAware ADS-B
Tue 05:17:43 PM 42.5921 -95.7849 88° East 510 587 37,000  Level FlightAware ADS-B
Tue 05:18:15 PM 42.5940 -95.6830 89° East 508 585 37,000  Level FlightAware ADS-B
Tue 05:18:51 PM 42.5967 -95.5680 88° East 506 582 37,000 358 Level FlightAware ADS-B
Tue 05:19:22 PM 42.5990 -95.4720 88° East 500 575 37,400  Climbing FlightAware ADS-B
Tue 05:19:52 PM 42.5976 -95.5230 268° West 506 582 37,000 984 Descending FlightAware ADS-B
Tue 05:20:23 PM 42.6023 -95.2796 88° East 498 573 38,400 1,385 Climbing FlightAware ADS-B
Tue 05:21:10 PM 42.6050 -95.1330 89° East 502 578 38,800 450 Climbing FlightAware ADS-B
Tue 05:21:43 PM 42.6060 -95.0320 89° East 496 571 39,000 174 Climbing FlightAware ADS-B
Tue 05:22:19 PM 42.6080 -94.9280 88° East 493 567 39,000  Level FlightAware ADS-B
Tue 05:22:55 PM 42.6100 -94.8150 89° East 494 568 39,000  Level FlightAware ADS-B
Tue 05:23:31 PM 42.6110 -94.7000 89° East 498 573 39,000  Level FlightAware ADS-B
Tue 05:24:12 PM 42.6130 -94.5700 89° East 504 580 39,000  Level FlightAware ADS-B
Tue 05:24:25 PM 42.6131 -94.5258 90° East 504 580 39,000  Level FlightAware ADS-B
Tue 05:25:20 PM 42.6150 -94.3530 89° East 508 585 39,000  Level FlightAware ADS-B
Tue 05:25:35 PM 42.6152 -94.3144 90° East 507 583 39,000  Level FlightAware ADS-B
Tue 05:26:31 PM 42.6170 -94.1290 89° East 501 577 39,000  Level FlightAware ADS-B
Tue 05:27:05 PM 42.6180 -94.0240 89° East 497 572 39,000  Level FlightAware ADS-B
Tue 05:27:42 PM 42.6180 -93.9100 90° East 496 571 39,000  Level FlightAware ADS-B
Tue 05:28:14 PM 42.6190 -93.8110 89° East 495 570 39,000  Level FlightAware ADS-B
Tue 05:28:47 PM 42.6190 -93.7060 90° East 494 568 39,000  Level FlightAware ADS-B
Tue 05:29:24 PM 42.6200 -93.5950 89° East 494 568 39,000  Level FlightAware ADS-B
Tue 05:30:00 PM 42.6200 -93.4830 90° East 492 566 39,000  Level FlightAware ADS-B
Tue 05:30:31 PM 42.6200 -93.3880 90° East 491 565 39,000  Level FlightAware ADS-B
Tue 05:31:07 PM 42.6200 -93.2750 90° East 491 565 39,000  Level FlightAware ADS-B
Tue 05:31:45 PM 42.6200 -93.1590 90° East 491 565 39,000  Level FlightAware ADS-B
Tue 05:32:21 PM 42.6200 -93.0530 90° East 491 565 39,000  Level FlightAware ADS-B
Tue 05:32:57 PM 42.6200 -92.9430 90° East 493 567 39,000  Level FlightAware ADS-B
Tue 05:33:33 PM 42.6200 -92.8250 90° East 495 570 39,000  Level FlightAware ADS-B
Tue 05:34:04 PM 42.6190 -92.7360 91° East 495 570 39,000  Level FlightAware ADS-B
Tue 05:34:41 PM 42.6190 -92.6210 90° East 496 571 39,000  Level FlightAware ADS-B
Tue 05:35:16 PM 42.6180 -92.5120 91° East 497 572 39,000  Level FlightAware ADS-B
Tue 05:35:52 PM 42.6170 -92.3970 91° East 496 571 39,000  Level FlightAware ADS-B
Tue 05:36:23 PM 42.6160 -92.2980 91° East 495 570 39,000  Level FlightAware ADS-B
Tue 05:36:59 PM 42.6150 -92.1910 91° East 494 568 39,000  Level FlightAware ADS-B
Tue 05:37:36 PM 42.6140 -92.0770 91° East 493 567 39,000  Level FlightAware ADS-B
Tue 05:38:13 PM 42.6130 -91.9620 91° East 492 566 39,000  Level FlightAware ADS-B
Tue 05:38:45 PM 42.6120 -91.8630 91° East 492 566 39,000  Level FlightAware ADS-B
Tue 05:39:19 PM 42.6110 -91.7570 91° East 492 566 39,000  Level FlightAware ADS-B
Tue 05:39:57 PM 42.6090 -91.6410 91° East 491 565 39,000  Level FlightAware ADS-B
Tue 05:40:29 PM 42.6080 -91.5420 91° East 491 565 39,000  Level FlightAware ADS-B
Tue 05:41:06 PM 42.6060 -91.4310 91° East 491 565 39,000  Level FlightAware ADS-B
Tue 05:41:42 PM 42.6040 -91.3180 91° East 493 567 39,000  Level FlightAware ADS-B
Tue 05:42:17 PM 42.6020 -91.2100 91° East 493 567 39,000  Level FlightAware ADS-B
Tue 05:42:50 PM 42.6000 -91.1080 91° East 492 566 39,000  Level FlightAware ADS-B
Tue 05:43:27 PM 42.5980 -90.9940 91° East 490 564 39,000  Level FlightAware ADS-B
Tue 05:44:02 PM 42.5960 -90.8880 91° East 489 563 39,000  Level FlightAware ADS-B
Tue 05:44:34 PM 42.5940 -90.7880 92° East 488 562 39,000  Level FlightAware ADS-B
Tue 05:45:12 PM 42.5910 -90.6730 92° East 489 563 39,000  Level FlightAware ADS-B
Tue 05:45:47 PM 42.5890 -90.5650 91° East 488 562 39,000  Level FlightAware ADS-B
Tue 05:46:18 PM 42.5870 -90.4710 92° East 488 562 39,000  Level FlightAware ADS-B
Tue 05:46:56 PM 42.5840 -90.3530 92° East 489 563 39,000  Level FlightAware ADS-B
Tue 05:47:30 PM 42.5810 -90.2520 92° East 489 563 39,000  Level FlightAware ADS-B
Tue 05:48:05 PM 42.5780 -90.1430 92° East 489 563 39,000  Level FlightAware ADS-B
Tue 05:48:40 PM 42.5750 -90.0340 92° East 490 564 39,000  Level FlightAware ADS-B
Tue 05:49:17 PM 42.5720 -89.9240 92° East 491 565 39,000  Level FlightAware ADS-B
Tue 05:49:47 PM 42.5690 -89.8320 93° East 491 565 39,000  Level FlightAware ADS-B
Tue 05:50:22 PM 42.5660 -89.7230 92° East 489 563 39,000  Level FlightAware ADS-B
Tue 05:51:01 PM 42.5620 -89.6050 93° East 488 562 39,000  Level FlightAware ADS-B
Tue 05:51:35 PM 42.5590 -89.4990 92° East 487 560 39,000  Level FlightAware ADS-B
Tue 05:52:12 PM 42.5550 -89.3870 93° East 487 560 39,000  Level FlightAware ADS-B
Tue 05:52:45 PM 42.5520 -89.2860 92° East 487 560 39,000  Level FlightAware ADS-B
Tue 05:53:19 PM 42.5480 -89.1820 93° East 488 562 39,000  Level FlightAware ADS-B
Tue 05:53:56 PM 42.5440 -89.0700 93° East 488 562 39,000  Level FlightAware ADS-B
Tue 05:54:28 PM 42.5400 -88.9710 93° East 487 560 39,000  Level FlightAware ADS-B
Tue 05:55:06 PM 42.5360 -88.8560 93° East 486 559 39,000  Level FlightAware ADS-B
Tue 05:55:42 PM 42.5320 -88.7470 93° East 485 558 39,000  Level FlightAware ADS-B
Tue 05:56:17 PM 42.5280 -88.6420 93° East 484 557 39,000  Level FlightAware ADS-B
Tue 05:56:50 PM 42.5240 -88.5420 93° East 482 555 39,000  Level FlightAware ADS-B
Tue 05:57:27 PM 42.5190 -88.4310 93° East 482 555 39,000  Level FlightAware ADS-B
Tue 05:57:59 PM 42.5150 -88.3360 93° East 482 555 39,000  Level FlightAware ADS-B
Tue 05:58:36 PM 42.5100 -88.2230 93° East 481 554 39,000  Level FlightAware ADS-B
Tue 05:59:10 PM 42.5060 -88.1230 93° East 480 552 39,000  Level FlightAware ADS-B
Tue 05:59:47 PM 42.5010 -88.0120 93° East 480 552 39,000  Level FlightAware ADS-B
Tue 06:00:17 PM 42.5000 -87.9190 91° East 481 554 39,000  Level FlightAware ADS-B
Tue 06:00:55 PM 42.5000 -87.8070 90° East 481 554 39,000  Level FlightAware ADS-B
Tue 06:01:31 PM 42.5000 -87.6980 90° East 481 554 39,000  Level FlightAware ADS-B
Tue 06:02:08 PM 42.4990 -87.5900 91° East 481 554 39,000  Level FlightAware ADS-B
Tue 06:02:47 PM 42.4990 -87.4720 90° East 480 552 39,000  Level FlightAware ADS-B
Tue 06:03:20 PM 42.4990 -87.3770 90° East 480 552 39,000  Level FlightAware ADS-B
Tue 06:03:53 PM 42.4980 -87.2760 91° East 480 552 39,000  Level FlightAware ADS-B
Tue 06:04:25 PM 42.4970 -87.1810 91° East 479 551 39,000  Level FlightAware ADS-B
Tue 06:05:07 PM 42.4960 -87.0570 91° East 479 551 39,000  Level FlightAware ADS-B
Tue 06:05:39 PM 42.4960 -86.9580 90° East 479 551 39,000  Level FlightAware ADS-B
Tue 06:06:17 PM 42.4950 -86.8420 91° East 479 551 39,000  Level FlightAware ADS-B
Tue 06:06:50 PM 42.4940 -86.7450 91° East 479 551 39,000  Level FlightAware ADS-B
Tue 06:07:26 PM 42.4930 -86.6390 91° East 480 552 39,000  Level FlightAware ADS-B
Tue 06:08:03 PM 42.4930 -86.5310 90° East 482 555 39,000  Level FlightAware ADS-B
Tue 06:08:36 PM 42.4920 -86.4320 91° East 483 556 39,000  Level FlightAware ADS-B
Tue 06:09:13 PM 42.4910 -86.3210 91° East 484 557 39,000  Level FlightAware ADS-B
Tue 06:09:49 PM 42.4890 -86.2100 91° East 485 558 39,000  Level FlightAware ADS-B
Tue 06:10:22 PM 42.4880 -86.1100 91° East 485 558 39,000  Level FlightAware ADS-B
Tue 06:10:56 PM 42.4870 -86.0070 91° East 486 559 39,000  Level FlightAware ADS-B
Tue 06:11:34 PM 42.4850 -85.8870 91° East 486 559 39,000  Level FlightAware ADS-B
Tue 06:12:06 PM 42.4840 -85.7870 91° East 487 560 39,000  Level FlightAware ADS-B
Tue 06:12:43 PM 42.4820 -85.6760 91° East 488 562 39,000  Level FlightAware ADS-B
Tue 06:13:17 PM 42.4800 -85.5720 91° East 488 562 39,000  Level FlightAware ADS-B
Tue 06:13:55 PM 42.4780 -85.4580 91° East 488 562 39,000  Level FlightAware ADS-B
Tue 06:14:29 PM 42.4760 -85.3520 91° East 489 563 39,000  Level FlightAware ADS-B
Tue 06:15:02 PM 42.4740 -85.2530 92° East 490 564 39,000  Level FlightAware ADS-B
Tue 06:15:37 PM 42.4720 -85.1440 91° East 491 565 39,000  Level FlightAware ADS-B
Tue 06:16:21 PM 42.4690 -85.0100 92° East 492 566 39,000  Level FlightAware ADS-B
Tue 06:17:01 PM 42.4670 -84.8870 91° East 493 567 39,000  Level FlightAware ADS-B
Tue 06:17:37 PM 42.4640 -84.7750 92° East 494 568 39,000  Level FlightAware ADS-B
Tue 06:18:08 PM 42.4620 -84.6940 92° East 494 568 39,000  Level FlightAware ADS-B
Tue 06:18:45 PM 42.4590 -84.5730 92° East 494 568 39,000  Level FlightAware ADS-B
Tue 06:19:22 PM 42.4560 -84.4540 92° East 494 568 39,000  Level FlightAware ADS-B
Tue 06:19:58 PM 42.4530 -84.3420 92° East 494 568 39,000  Level FlightAware ADS-B
Tue 06:20:34 PM 42.4500 -84.2290 92° East 495 570 39,000  Level FlightAware ADS-B
Tue 06:21:08 PM 42.4470 -84.1260 92° East 495 570 39,000  Level FlightAware ADS-B
Tue 06:21:42 PM 42.4430 -84.0200 93° East 495 570 39,000  Level FlightAware ADS-B
Tue 06:22:18 PM 42.4400 -83.9120 92° East 495 570 39,000  Level FlightAware ADS-B
Tue 06:22:50 PM 42.4370 -83.8130 92° East 496 571 39,000  Level FlightAware ADS-B
Tue 06:23:27 PM 42.4330 -83.6990 93° East 496 571 39,000  Level FlightAware ADS-B
Tue 06:24:02 PM 42.4290 -83.5870 93° East 497 572 39,000  Level FlightAware ADS-B
Tue 06:24:38 PM 42.4260 -83.4760 92° East 497 572 39,000  Level FlightAware ADS-B
Tue 06:25:08 PM 42.4220 -83.3820 93° East 498 573 39,000  Level FlightAware ADS-B
Tue 06:25:46 PM 42.4180 -83.2640 93° East 499 574 39,000  Level FlightAware ADS-B
Tue 06:26:22 PM 42.4140 -83.1560 93° East 500 575 39,000  Level FlightAware ADS-B
Tue 06:26:58 PM 42.4080 -83.0410 94° East 499 574 39,000  Level FlightAware ADS-B
Tue 06:27:30 PM 42.4000 -82.9430 96° East 499 574 39,000  Level FlightAware ADS-B
Tue 06:28:08 PM 42.3910 -82.8300 96° East 501 577 39,000  Level FlightAware ADS-B
Tue 06:28:42 PM 42.3820 -82.7190 96° East 502 578 39,000  Level FlightAware ADS-B
Tue 06:29:13 PM 42.3740 -82.6230 96° East 503 579 39,000  Level FlightAware ADS-B
Tue 06:29:51 PM 42.3640 -82.5070 97° East 504 580 39,000  Level FlightAware ADS-B
Tue 06:30:27 PM 42.3540 -82.3900 97° East 504 580 39,000  Level FlightAware ADS-B
Tue 06:30:59 PM 42.3450 -82.2880 97° East 504 580 39,000  Level FlightAware ADS-B
Tue 06:31:45 PM 42.3330 -82.1470 97° East 505 581 39,000  Level FlightAware ADS-B
Tue 06:32:21 PM 42.3230 -82.0340 97° East 505 581 39,000  Level FlightAware ADS-B
Tue 06:32:55 PM 42.3150 -81.9530 98° East 506 582 39,000  Level FlightAware ADS-B
Tue 06:33:35 PM 42.3010 -81.8000 97° East 506 582 39,000  Level FlightAware ADS-B
Tue 06:34:13 PM 42.2900 -81.6820 97° East 507 583 39,000  Level FlightAware ADS-B
Tue 06:34:45 PM 42.2810 -81.5830 97° East 507 583 39,000  Level FlightAware ADS-B
Tue 06:35:20 PM 42.2710 -81.4750 97° East 506 582 39,000  Level FlightAware ADS-B
Tue 06:35:57 PM 42.2600 -81.3580 97° East 506 582 39,000  Level FlightAware ADS-B
Tue 06:36:31 PM 42.2490 -81.2510 98° East 506 582 39,000  Level FlightAware ADS-B
Tue 06:37:04 PM 42.2390 -81.1470 97° East 506 582 39,000  Level FlightAware ADS-B
Tue 06:37:41 PM 42.2280 -81.0320 97° East 505 581 39,000  Level FlightAware ADS-B
Tue 06:38:18 PM 42.2160 -80.9180 98° East 506 582 39,000  Level FlightAware ADS-B
Tue 06:38:50 PM 42.2060 -80.8160 98° East 506 582 39,000  Level FlightAware ADS-B
Tue 06:39:24 PM 42.1950 -80.7100 98° East 506 582 39,000  Level FlightAware ADS-B
Tue 06:40:01 PM 42.1830 -80.5950 98° East 506 582 39,000  Level FlightAware ADS-B
Tue 06:40:36 PM 42.1720 -80.4890 98° East 506 582 39,000  Level FlightAware ADS-B
Tue 06:41:11 PM 42.1600 -80.3770 98° East 507 583 39,000  Level FlightAware ADS-B
Tue 06:41:43 PM 42.1500 -80.2790 98° East 509 586 39,000  Level FlightAware ADS-B
Tue 06:42:20 PM 42.1380 -80.1640 98° East 509 586 39,000  Level FlightAware ADS-B
Tue 06:42:57 PM 42.1250 -80.0450 98° East 510 587 39,000  Level FlightAware ADS-B
Tue 06:43:32 PM 42.1130 -79.9360 98° East 510 587 39,000  Level FlightAware ADS-B
Tue 06:44:06 PM 42.1020 -79.8330 98° East 510 587 39,000  Level FlightAware ADS-B
Tue 06:44:41 PM 42.0890 -79.7220 99° East 510 587 39,000  Level FlightAware ADS-B
Tue 06:45:15 PM 42.0770 -79.6140 98° East 511 588 39,000  Level FlightAware ADS-B
Tue 06:45:52 PM 42.0640 -79.4960 98° East 511 588 39,000  Level FlightAware ADS-B
Tue 06:46:25 PM 42.0520 -79.3940 99° East 512 589 39,000  Level FlightAware ADS-B
Tue 06:47:01 PM 42.0400 -79.2830 98° East 513 590 39,000  Level FlightAware ADS-B
Tue 06:47:36 PM 42.0270 -79.1750 99° East 513 590 39,000  Level FlightAware ADS-B
Tue 06:48:09 PM 42.0150 -79.0670 98° East 513 590 39,000  Level FlightAware ADS-B
Tue 06:48:44 PM 42.0020 -78.9610 99° East 513 590 39,000  Level FlightAware ADS-B
Tue 06:49:27 PM 41.9860 -78.8280 99° East 512 589 39,000  Level FlightAware ADS-B
Tue 06:50:04 PM 41.9720 -78.7090 99° East 510 587 39,000  Level FlightAware ADS-B
Tue 06:50:41 PM 41.9570 -78.5900 100° East 510 587 39,000  Level FlightAware ADS-B
Tue 06:51:14 PM 41.9450 -78.4890 99° East 509 586 39,000  Level FlightAware ADS-B
Tue 06:51:49 PM 41.9320 -78.3810 99° East 509 586 39,000  Level FlightAware ADS-B
Tue 06:52:21 PM 41.9190 -78.2820 100° East 510 587 39,000  Level FlightAware ADS-B
Tue 06:52:58 PM 41.9050 -78.1670 99° East 511 588 39,000  Level FlightAware ADS-B
Tue 06:53:34 PM 41.8910 -78.0540 99° East 512 589 39,000  Level FlightAware ADS-B
Tue 06:54:10 PM 41.8760 -77.9380 100° East 512 589 39,000  Level FlightAware ADS-B
Tue 06:54:46 PM 41.8570 -77.8260 103° East 514 592 39,000  Level FlightAware ADS-B
Tue 06:55:18 PM 41.8330 -77.7300 109° East 516 594 39,000  Level FlightAware ADS-B
Tue 06:55:55 PM 41.8040 -77.6210 110° East 517 595 39,000  Level FlightAware ADS-B
Tue 06:56:30 PM 41.7760 -77.5140 109° East 519 597 39,000  Level FlightAware ADS-B
Tue 06:57:02 PM 41.7500 -77.4160 110° East 519 597 39,000  Level FlightAware ADS-B
Tue 06:57:38 PM 41.7210 -77.3080 110° East 519 597 39,000  Level FlightAware ADS-B
Tue 06:58:14 PM 41.6920 -77.2000 110° East 519 597 39,000  Level FlightAware ADS-B
Tue 06:58:46 PM 41.6650 -77.1010 110° East 519 597 39,000  Level FlightAware ADS-B
Tue 06:59:22 PM 41.6370 -76.9960 110° East 520 598 39,000  Level FlightAware ADS-B
Tue 06:59:58 PM 41.6070 -76.8860 110° East 521 600 39,000  Level FlightAware ADS-B
Tue 07:00:36 PM 41.5760 -76.7720 110° East 521 600 39,000  Level FlightAware ADS-B
Tue 07:01:10 PM 41.5480 -76.6720 110° East 521 600 39,000 -90 Level FlightAware ADS-B
Tue 07:01:43 PM 41.5200 -76.5710 110° East 519 597 38,900 -353 Descending FlightAware ADS-B
Tue 07:02:18 PM 41.4930 -76.4710 110° East 510 587 38,600 -514 Descending FlightAware ADS-B
Tue 07:02:53 PM 41.4650 -76.3700 110° East 503 579 38,300 -716 Descending FlightAware ADS-B
Tue 07:03:25 PM 41.4380 -76.2760 111° Southeast 500 575 37,800 -1,457 Descending FlightAware ADS-B
Tue 07:04:03 PM 41.4070 -76.1630 110° East 500 575 36,600 -2,108 Descending FlightAware ADS-B
Tue 07:04:39 PM 41.3780 -76.0600 111° Southeast 497 572 35,200 -2,451 Descending FlightAware ADS-B
Tue 07:05:14 PM 41.3500 -75.9600 110° East 495 570 33,700 -2,571 Descending FlightAware ADS-B
Tue 07:05:49 PM 41.3220 -75.8630 111° Southeast 493 567 32,200 -2,912 Descending FlightAware ADS-B
Tue 07:06:22 PM 41.2950 -75.7660 110° East 494 568 30,400 -3,257 Descending FlightAware ADS-B
Tue 07:06:59 PM 41.2640 -75.6630 112° Southeast 498 573 28,400 -3,000 Descending FlightAware ADS-B
Tue 07:07:30 PM 41.2360 -75.5790 114° Southeast 494 568 27,000 -2,620 Descending FlightAware ADS-B
Tue 07:08:10 PM 41.2000 -75.4720 114° Southeast 482 555 25,300 -2,657 Descending FlightAware ADS-B
Tue 07:08:40 PM 41.1720 -75.3870 114° Southeast 476 548 23,900 -1,970 Descending FlightAware ADS-B
Tue 07:09:17 PM 41.1410 -75.2950 114° Southeast 468 539 23,100 -730 Descending FlightAware ADS-B
Tue 07:09:54 PM 41.1060 -75.1910 114° Southeast 470 541 23,000 -86 Descending FlightAware ADS-B
Tue 07:10:27 PM 41.0790 -75.1110 114° Southeast 472 543 23,000  Level FlightAware ADS-B
Tue 07:10:58 PM 41.0510 -75.0300 115° Southeast 464 534 23,000 -150 Level FlightAware ADS-B
Tue 07:11:47 PM 41.0100 -74.9080 114° Southeast 419 482 22,800 -366 Descending FlightAware ADS-B
Tue 07:12:20 PM 40.9920 -74.8270 106° East 390 449 22,500 -857 Descending FlightAware ADS-B
Tue 07:12:57 PM 40.9820 -74.7440 99° East 376 433 21,800 -1,286 Descending FlightAware ADS-B
Tue 07:13:30 PM 40.9830 -74.6680 89° East 362 417 21,000 -667 Descending FlightAware ADS-B
Tue 07:14:09 PM 40.9920 -74.5820 82° East 368 423 21,000  Level FlightAware ADS-B
Tue 07:14:40 PM 40.9980 -74.5110 84° East 373 429 21,000 -203 Level FlightAware ADS-B
Tue 07:15:08 PM 40.9910 -74.4470 98° East 379 436 20,800 -1,125 Descending FlightAware ADS-B
Tue 07:15:44 PM 40.9700 -74.3670 109° East 377 434 19,800 -1,479 Descending FlightAware ADS-B
Tue 07:16:21 PM 40.9500 -74.2860 108° East 373 429 19,000 -667 Descending FlightAware ADS-B
Tue 07:16:56 PM 40.9320 -74.2100 107° East 374 430 19,000 -88 Level FlightAware ADS-B
Tue 07:17:29 PM 40.9120 -74.1410 111° Southeast 378 435 18,900 -490 Descending FlightAware ADS-B
Tue 07:17:45 PM 40.8930 -74.1120 131° Southeast 376 433 18,600 -1,034 Descending FlightAware ADS-B
Tue 07:17:58 PM 40.8750 -74.0960 146° Southeast 371 427 18,400 -1,273 Descending FlightAware ADS-B
Tue 07:18:18 PM 40.8430 -74.0800 159° South 365 420 17,900 -1,560 Descending FlightAware ADS-B
Tue 07:18:48 PM 40.7947 -74.0618 164° South 360 414 17,100 -1,545 Descending FlightAware ADS-B
Tue 07:19:24 PM 40.7378 -74.0412 165° South 355 409 16,200 -1,974 Descending FlightAware ADS-B
Tue 07:20:04 PM 40.6743 -74.0187 165° South 348 400 14,600 -2,384 Descending FlightAware ADS-B
Tue 07:20:37 PM 40.6260 -74.0020 165° South 337 388 13,300 -1,371 Descending FlightAware ADS-B
Tue 07:21:14 PM 40.5710 -73.9810 164° South 330 380 13,000 -247 Descending FlightAware ADS-B
Tue 07:21:50 PM 40.5180 -73.9610 164° South 331 381 13,000 -174 Level FlightAware ADS-B
Tue 07:22:23 PM 40.4680 -73.9420 164° South 329 379 12,800 -1,235 Descending FlightAware ADS-B
Tue 07:22:58 PM 40.4160 -73.9230 164° South 326 375 11,600 -1,964 Descending FlightAware ADS-B
Tue 07:23:18 PM 40.3900 -73.9120 162° South 325 374 11,000 -1,862 Descending FlightAware ADS-B
Tue 07:23:27 PM 40.3780 -73.9010 145° Southeast 324 373 10,700 -1,765 Descending FlightAware ADS-B
Tue 07:23:35 PM 40.3700 -73.8890 131° Southeast 322 371 10,500 -1,778 Descending FlightAware ADS-B
Tue 07:23:54 PM 40.3550 -73.8570 122° Southeast 318 366 9,900 -1,950 Descending FlightAware ADS-B
Tue 07:24:15 PM 40.3400 -73.8220 119° Southeast 315 362 9,200 -1,610 Descending FlightAware ADS-B
Tue 07:24:35 PM 40.3270 -73.7930 120° Southeast 310 357 8,800 -1,571 Descending FlightAware ADS-B
Tue 07:24:57 PM 40.3110 -73.7560 120° Southeast 305 351 8,100 -1,929 Descending FlightAware ADS-B
Tue 07:25:03 PM 40.3080 -73.7450 110° East 301 346 7,900 -1,875 Descending FlightAware ADS-B
Tue 07:25:13 PM 40.3060 -73.7270 98° East 292 336 7,600 -1,784 Descending FlightAware ADS-B
Tue 07:25:40 PM 40.3180 -73.6830 70° East 271 312 6,800 -1,750 Descending FlightAware ADS-B
Tue 07:26:01 PM 40.3300 -73.6550 61° Northeast 267 307 6,200 -1,800 Descending FlightAware ADS-B
Tue 07:26:20 PM 40.3420 -73.6260 61° Northeast 265 305 5,600 -1,500 Descending FlightAware ADS-B
Tue 07:26:37 PM 40.3510 -73.6050 61° Northeast 261 300 5,300 -1,304 Descending FlightAware ADS-B
Tue 07:26:43 PM 40.3580 -73.5970 41° Northeast 257 296 5,100 -1,091 Descending FlightAware ADS-B
Tue 07:26:48 PM 40.3630 -73.5920 37° Northeast 254 292 5,100 -667 Level FlightAware ADS-B
Tue 07:27:10 PM 40.3820 -73.5780 29° Northeast 246 283 4,800 -1,024 Descending FlightAware ADS-B
Tue 07:27:29 PM 40.4020 -73.5640 28° Northeast 242 278 4,400 -1,143 Descending FlightAware ADS-B
Tue 07:27:52 PM 40.4260 -73.5480 27° Northeast 248 285 4,000 -545 Descending FlightAware ADS-B
Tue 07:28:13 PM 40.4470 -73.5330 29° Northeast 254 292 4,000  Level FlightAware ADS-B
Tue 07:28:28 PM 40.4630 -73.5200 32° Northeast 251 289 4,000  Level FlightAware ADS-B
Tue 07:28:48 PM 40.4840 -73.5050 29° Northeast 250 288 4,000  Level FlightAware ADS-B
Tue 07:29:01 PM 40.4970 -73.4950 30° Northeast 252 290 4,000  Level FlightAware ADS-B
Tue 07:29:24 PM 40.5200 -73.4780 29° Northeast 247 284 4,000 -409 Level FlightAware ADS-B
Tue 07:29:45 PM 40.5400 -73.4630 30° Northeast 243 280 3,700 -1,200 Descending FlightAware ADS-B
Tue 07:30:04 PM 40.5590 -73.4480 31° Northeast 245 282 3,200 -977 Descending FlightAware ADS-B
Tue 07:30:28 PM 40.5810 -73.4320 29° Northeast 237 273 3,000 -261 Descending FlightAware ADS-B
Tue 07:30:50 PM 40.6030 -73.4160 29° Northeast 218 251 3,000  Level FlightAware ADS-B
Tue 07:31:09 PM 40.6190 -73.4030 32° Northeast 218 251 3,000  Level FlightAware ADS-B
Tue 07:31:29 PM 40.6360 -73.3910 28° Northeast 212 244 3,000  Level FlightAware ADS-B
Tue 07:31:38 PM 40.6450 -73.3900 North 205 236 3,000  Level FlightAware ADS-B
Tue 07:31:51 PM 40.6560 -73.3940 345° North 202 232 3,000  Level FlightAware ADS-B
Tue 07:32:11 PM 40.6730 -73.4080 328° Northwest 206 237 3,000  Level FlightAware ADS-B
Tue 07:32:26 PM 40.6850 -73.4190 325° Northwest 206 237 3,000 -500 Level FlightAware ADS-B
Tue 07:32:47 PM 40.7010 -73.4330 326° Northwest 203 234 2,700 -1,024 Descending FlightAware ADS-B
Tue 07:33:07 PM 40.7170 -73.4470 326° Northwest 204 235 2,300 -1,050 Descending FlightAware ADS-B
Tue 07:33:27 PM 40.7330 -73.4600 328° Northwest 203 234 2,000 -462 Descending FlightAware ADS-B
Tue 07:33:46 PM 40.7480 -73.4730 327° Northwest 205 236 2,000  Level FlightAware ADS-B
Tue 07:34:12 PM 40.7680 -73.4910 326° Northwest 206 237 2,000  Level FlightAware ADS-B
Tue 07:34:24 PM 40.7740 -73.5050 300° West 204 235 2,000  Level FlightAware ADS-B
Tue 07:34:43 PM 40.7810 -73.5240 296° West 204 235 2,000  Level FlightAware ADS-B
Tue 07:35:09 PM 40.7920 -73.5540 296° West 190 219 2,000  Level FlightAware ADS-B
Tue 07:35:26 PM 40.7980 -73.5730 293° West 175 201 2,000  Level FlightAware ADS-B
Tue 07:35:48 PM 40.8040 -73.5910 294° West 163 188 2,000  Level FlightAware ADS-B
Tue 07:35:53 PM 40.8050 -73.5960 285° West 164 189 2,000  Level FlightAware ADS-B
Tue 07:36:17 PM 40.7990 -73.6200 252° West 173 199 2,000  Level FlightAware ADS-B
Tue 07:36:37 PM 40.7910 -73.6370 238° Southwest 172 198 2,000  Level FlightAware ADS-B
Tue 07:36:45 PM 40.7860 -73.6430 222° Southwest 177 204 2,000  Level FlightAware ADS-B
Tue 07:37:05 PM 40.7710 -73.6550 211° Southwest 178 205 2,000  Level FlightAware ADS-B
Tue 07:37:26 PM 40.7580 -73.6670 215° Southwest 178 205 2,000 -133 Level FlightAware ADS-B
Tue 07:37:50 PM 40.7390 -73.6810 209° Southwest 180 207 1,900 -286 Descending FlightAware ADS-B
Tue 07:38:08 PM 40.7270 -73.6910 212° Southwest 166 191 1,800 -462 Descending FlightAware ADS-B
Tue 07:38:29 PM 40.7140 -73.7010 210° Southwest 151 174 1,600 -571 Descending FlightAware ADS-B
Tue 07:38:50 PM 40.7020 -73.7100 210° Southwest 136 157 1,400 -800 Descending FlightAware ADS-B
Tue 07:39:14 PM 40.6890 -73.7200 210° Southwest 134 154 1,000 -833 Descending FlightAware ADS-B
Tue 07:39:26 PM 40.6830 -73.7250 212° Southwest 134 154 900 -581 Descending FlightAware ADS-B
Tue 07:39:45 PM 40.6730 -73.7330 211° Southwest 135 155 700 -698 Descending FlightAware ADS-B
Tue 07:40:09 PM 40.6600 -73.7430 210° Southwest 134 154 400 -682 Descending FlightAware ADS-B
Tue 07:40:29 PM 40.6500 -73.7520 214° Southwest 132 152 200 -600 Descending FlightAware ADS-B
Tue 07:40:49 PM 40.6390 -73.7590 206° Southwest 115 132 -600 Descending FlightAware ADS-B

Login

Don't have an account? Register now (free) for customized features, flight alerts, and more!